sensor_id;sensor_type;location;lat;lon;timestamp;P1;durP1;ratioP1;P2;durP2;ratioP2
4084;SDS011;2057;50.858;6.572;2022-10-24T00:02:24;14.10;;;4.17;;
4084;SDS011;2057;50.858;6.572;2022-10-24T00:04:49;17.50;;;4.20;;
4084;SDS011;2057;50.858;6.572;2022-10-24T00:07:15;13.43;;;3.33;;
4084;SDS011;2057;50.858;6.572;2022-10-24T00:09:40;18.20;;;3.63;;
4084;SDS011;2057;50.858;6.572;2022-10-24T00:12:06;19.33;;;3.70;;
4084;SDS011;2057;50.858;6.572;2022-10-24T00:14:32;14.43;;;3.70;;
4084;SDS011;2057;50.858;6.572;2022-10-24T00:16:59;16.70;;;3.53;;
4084;SDS011;2057;50.858;6.572;2022-10-24T00:19:24;11.00;;;3.70;;
4084;SDS011;2057;50.858;6.572;2022-10-24T00:21:50;6.20;;;3.60;;
4084;SDS011;2057;50.858;6.572;2022-10-24T00:24:15;16.47;;;4.23;;
4084;SDS011;2057;50.858;6.572;2022-10-24T00:26:41;17.93;;;4.33;;
4084;SDS011;2057;50.858;6.572;2022-10-24T00:29:06;9.17;;;3.30;;
4084;SDS011;2057;50.858;6.572;2022-10-24T00:31:32;20.83;;;5.00;;
4084;SDS011;2057;50.858;6.572;2022-10-24T00:33:58;12.93;;;3.90;;
4084;SDS011;2057;50.858;6.572;2022-10-24T00:36:25;15.83;;;4.80;;
4084;SDS011;2057;50.858;6.572;2022-10-24T00:38:51;15.70;;;3.60;;
4084;SDS011;2057;50.858;6.572;2022-10-24T00:41:18;16.30;;;3.57;;
4084;SDS011;2057;50.858;6.572;2022-10-24T00:43:48;12.00;;;4.43;;
4084;SDS011;2057;50.858;6.572;2022-10-24T00:46:14;27.40;;;4.30;;
4084;SDS011;2057;50.858;6.572;2022-10-24T00:48:44;20.43;;;4.00;;
4084;SDS011;2057;50.858;6.572;2022-10-24T00:51:30;14.33;;;3.53;;
4084;SDS011;2057;50.858;6.572;2022-10-24T00:54:05;15.37;;;3.60;;
4084;SDS011;2057;50.858;6.572;2022-10-24T00:56:33;15.23;;;3.97;;
4084;SDS011;2057;50.858;6.572;2022-10-24T00:59:03;16.77;;;4.10;;
4084;SDS011;2057;50.858;6.572;2022-10-24T01:01:29;12.87;;;3.60;;
4084;SDS011;2057;50.858;6.572;2022-10-24T01:03:55;12.23;;;3.60;;
4084;SDS011;2057;50.858;6.572;2022-10-24T01:09:11;8.63;;;3.20;;
4084;SDS011;2057;50.858;6.572;2022-10-24T01:30:49;16.57;;;3.80;;
4084;SDS011;2057;50.858;6.572;2022-10-24T01:33:22;11.87;;;3.67;;
4084;SDS011;2057;50.858;6.572;2022-10-24T01:36:02;18.53;;;3.57;;
4084;SDS011;2057;50.858;6.572;2022-10-24T01:38:30;11.90;;;4.23;;
4084;SDS011;2057;50.858;6.572;2022-10-24T01:41:12;11.70;;;3.40;;
4084;SDS011;2057;50.858;6.572;2022-10-24T01:43:46;14.90;;;3.83;;
4084;SDS011;2057;50.858;6.572;2022-10-24T01:46:17;22.07;;;3.50;;
4084;SDS011;2057;50.858;6.572;2022-10-24T01:48:48;20.13;;;4.70;;
4084;SDS011;2057;50.858;6.572;2022-10-24T01:51:19;17.53;;;3.67;;
4084;SDS011;2057;50.858;6.572;2022-10-24T01:53:48;10.13;;;2.30;;
4084;SDS011;2057;50.858;6.572;2022-10-24T01:56:15;12.53;;;2.93;;
4084;SDS011;2057;50.858;6.572;2022-10-24T01:58:41;8.93;;;3.50;;
4084;SDS011;2057;50.858;6.572;2022-10-24T02:01:07;9.23;;;3.20;;
4084;SDS011;2057;50.858;6.572;2022-10-24T02:03:37;14.87;;;3.70;;
4084;SDS011;2057;50.858;6.572;2022-10-24T02:08:53;10.30;;;2.63;;
4084;SDS011;2057;50.858;6.572;2022-10-24T02:11:22;20.27;;;3.87;;
4084;SDS011;2057;50.858;6.572;2022-10-24T02:13:59;10.40;;;2.87;;
4084;SDS011;2057;50.858;6.572;2022-10-24T02:16:29;7.90;;;3.20;;
4084;SDS011;2057;50.858;6.572;2022-10-24T02:18:55;15.47;;;2.80;;
4084;SDS011;2057;50.858;6.572;2022-10-24T02:24:17;9.00;;;3.17;;
4084;SDS011;2057;50.858;6.572;2022-10-24T02:26:52;7.40;;;3.10;;
4084;SDS011;2057;50.858;6.572;2022-10-24T02:29:26;7.53;;;2.77;;
4084;SDS011;2057;50.858;6.572;2022-10-24T02:32:05;4.80;;;3.10;;
4084;SDS011;2057;50.858;6.572;2022-10-24T02:34:33;9.20;;;2.80;;
4084;SDS011;2057;50.858;6.572;2022-10-24T02:37:02;11.30;;;2.50;;
4084;SDS011;2057;50.858;6.572;2022-10-24T02:39:29;12.93;;;3.10;;
4084;SDS011;2057;50.858;6.572;2022-10-24T02:41:56;7.87;;;2.90;;
4084;SDS011;2057;50.858;6.572;2022-10-24T02:44:23;18.87;;;3.20;;
4084;SDS011;2057;50.858;6.572;2022-10-24T02:46:51;16.03;;;2.40;;
4084;SDS011;2057;50.858;6.572;2022-10-24T02:49:18;9.13;;;2.47;;
4084;SDS011;2057;50.858;6.572;2022-10-24T02:51:44;9.93;;;3.20;;
4084;SDS011;2057;50.858;6.572;2022-10-24T02:54:11;7.30;;;2.30;;
4084;SDS011;2057;50.858;6.572;2022-10-24T02:56:38;12.40;;;2.37;;
4084;SDS011;2057;50.858;6.572;2022-10-24T02:59:07;17.53;;;2.77;;
4084;SDS011;2057;50.858;6.572;2022-10-24T03:01:33;13.90;;;2.77;;
4084;SDS011;2057;50.858;6.572;2022-10-24T03:03:59;5.33;;;2.30;;
4084;SDS011;2057;50.858;6.572;2022-10-24T03:06:24;4.60;;;1.63;;
4084;SDS011;2057;50.858;6.572;2022-10-24T03:08:49;10.50;;;2.80;;
4084;SDS011;2057;50.858;6.572;2022-10-24T03:11:15;6.67;;;2.73;;
4084;SDS011;2057;50.858;6.572;2022-10-24T03:13:41;11.17;;;2.87;;
4084;SDS011;2057;50.858;6.572;2022-10-24T03:16:06;7.10;;;2.43;;
4084;SDS011;2057;50.858;6.572;2022-10-24T03:18:31;7.37;;;2.50;;
4084;SDS011;2057;50.858;6.572;2022-10-24T03:20:57;6.07;;;2.10;;
4084;SDS011;2057;50.858;6.572;2022-10-24T03:23:22;9.20;;;3.20;;
4084;SDS011;2057;50.858;6.572;2022-10-24T03:25:49;9.40;;;2.73;;
4084;SDS011;2057;50.858;6.572;2022-10-24T03:28:14;7.23;;;2.07;;
4084;SDS011;2057;50.858;6.572;2022-10-24T03:30:40;8.47;;;2.43;;
4084;SDS011;2057;50.858;6.572;2022-10-24T03:33:05;4.37;;;2.37;;
4084;SDS011;2057;50.858;6.572;2022-10-24T03:35:30;6.97;;;2.00;;
4084;SDS011;2057;50.858;6.572;2022-10-24T03:37:56;12.03;;;2.50;;
4084;SDS011;2057;50.858;6.572;2022-10-24T03:40:21;13.97;;;3.07;;
4084;SDS011;2057;50.858;6.572;2022-10-24T03:42:47;7.93;;;2.00;;
4084;SDS011;2057;50.858;6.572;2022-10-24T03:45:12;8.13;;;1.73;;
4084;SDS011;2057;50.858;6.572;2022-10-24T03:47:37;11.73;;;2.53;;
4084;SDS011;2057;50.858;6.572;2022-10-24T03:50:03;5.67;;;2.10;;
4084;SDS011;2057;50.858;6.572;2022-10-24T03:52:31;9.23;;;2.30;;
4084;SDS011;2057;50.858;6.572;2022-10-24T03:54:57;5.17;;;1.47;;
4084;SDS011;2057;50.858;6.572;2022-10-24T03:57:22;14.53;;;2.57;;
4084;SDS011;2057;50.858;6.572;2022-10-24T03:59:48;5.90;;;1.47;;
4084;SDS011;2057;50.858;6.572;2022-10-24T04:02:13;10.97;;;2.13;;
4084;SDS011;2057;50.858;6.572;2022-10-24T04:04:38;6.47;;;2.10;;
4084;SDS011;2057;50.858;6.572;2022-10-24T04:07:04;7.80;;;2.43;;
4084;SDS011;2057;50.858;6.572;2022-10-24T04:09:30;6.57;;;2.03;;
4084;SDS011;2057;50.858;6.572;2022-10-24T04:11:55;6.20;;;1.90;;
4084;SDS011;2057;50.858;6.572;2022-10-24T04:14:21;8.70;;;2.00;;
4084;SDS011;2057;50.858;6.572;2022-10-24T04:16:46;10.47;;;2.30;;
4084;SDS011;2057;50.858;6.572;2022-10-24T04:19:11;14.77;;;2.27;;
4084;SDS011;2057;50.858;6.572;2022-10-24T04:21:37;9.73;;;2.10;;
4084;SDS011;2057;50.858;6.572;2022-10-24T04:24:02;7.50;;;2.10;;
4084;SDS011;2057;50.858;6.572;2022-10-24T04:26:28;9.10;;;2.50;;
4084;SDS011;2057;50.858;6.572;2022-10-24T04:28:53;3.90;;;1.57;;
4084;SDS011;2057;50.858;6.572;2022-10-24T04:31:18;10.70;;;2.07;;
4084;SDS011;2057;50.858;6.572;2022-10-24T04:33:44;10.50;;;2.30;;
4084;SDS011;2057;50.858;6.572;2022-10-24T04:36:09;6.97;;;2.20;;
4084;SDS011;2057;50.858;6.572;2022-10-24T04:38:34;2.40;;;1.23;;
4084;SDS011;2057;50.858;6.572;2022-10-24T04:41:00;8.80;;;1.30;;
4084;SDS011;2057;50.858;6.572;2022-10-24T04:43:28;5.87;;;1.30;;
4084;SDS011;2057;50.858;6.572;2022-10-24T04:45:53;5.40;;;2.23;;
4084;SDS011;2057;50.858;6.572;2022-10-24T04:48:18;8.10;;;1.60;;
4084;SDS011;2057;50.858;6.572;2022-10-24T04:50:44;3.87;;;1.60;;
4084;SDS011;2057;50.858;6.572;2022-10-24T04:53:11;5.40;;;2.07;;
4084;SDS011;2057;50.858;6.572;2022-10-24T04:55:36;8.30;;;1.50;;
4084;SDS011;2057;50.858;6.572;2022-10-24T04:58:02;5.07;;;1.67;;
4084;SDS011;2057;50.858;6.572;2022-10-24T05:00:28;3.83;;;1.50;;
4084;SDS011;2057;50.858;6.572;2022-10-24T05:02:53;5.23;;;1.60;;
4084;SDS011;2057;50.858;6.572;2022-10-24T05:05:19;6.50;;;1.73;;
4084;SDS011;2057;50.858;6.572;2022-10-24T05:07:45;7.40;;;2.13;;
4084;SDS011;2057;50.858;6.572;2022-10-24T05:10:11;4.37;;;1.97;;
4084;SDS011;2057;50.858;6.572;2022-10-24T05:12:38;6.30;;;1.57;;
4084;SDS011;2057;50.858;6.572;2022-10-24T05:15:04;7.07;;;2.17;;
4084;SDS011;2057;50.858;6.572;2022-10-24T05:17:30;22.77;;;2.13;;
4084;SDS011;2057;50.858;6.572;2022-10-24T05:19:55;5.50;;;1.77;;
4084;SDS011;2057;50.858;6.572;2022-10-24T05:22:20;4.10;;;1.93;;
4084;SDS011;2057;50.858;6.572;2022-10-24T05:24:46;5.03;;;1.40;;
4084;SDS011;2057;50.858;6.572;2022-10-24T05:27:11;5.63;;;1.90;;
4084;SDS011;2057;50.858;6.572;2022-10-24T05:29:37;5.77;;;2.00;;
4084;SDS011;2057;50.858;6.572;2022-10-24T05:32:02;7.63;;;1.83;;
4084;SDS011;2057;50.858;6.572;2022-10-24T05:34:28;3.00;;;1.20;;
4084;SDS011;2057;50.858;6.572;2022-10-24T05:36:53;9.70;;;2.93;;
4084;SDS011;2057;50.858;6.572;2022-10-24T05:39:18;4.20;;;1.77;;
4084;SDS011;2057;50.858;6.572;2022-10-24T05:41:44;5.17;;;1.90;;
4084;SDS011;2057;50.858;6.572;2022-10-24T05:44:10;10.43;;;3.13;;
4084;SDS011;2057;50.858;6.572;2022-10-24T05:46:36;1.70;;;1.40;;
4084;SDS011;2057;50.858;6.572;2022-10-24T05:49:02;7.70;;;1.70;;
4084;SDS011;2057;50.858;6.572;2022-10-24T05:51:27;8.70;;;2.20;;
4084;SDS011;2057;50.858;6.572;2022-10-24T05:53:52;10.13;;;2.00;;
4084;SDS011;2057;50.858;6.572;2022-10-24T05:56:18;7.53;;;1.83;;
4084;SDS011;2057;50.858;6.572;2022-10-24T05:58:43;8.83;;;2.07;;
4084;SDS011;2057;50.858;6.572;2022-10-24T06:01:08;7.73;;;1.70;;
4084;SDS011;2057;50.858;6.572;2022-10-24T06:03:34;5.07;;;1.77;;
4084;SDS011;2057;50.858;6.572;2022-10-24T06:06:03;5.37;;;1.70;;
4084;SDS011;2057;50.858;6.572;2022-10-24T06:08:30;8.57;;;2.00;;
4084;SDS011;2057;50.858;6.572;2022-10-24T06:10:57;8.03;;;2.17;;
4084;SDS011;2057;50.858;6.572;2022-10-24T06:13:22;3.50;;;1.63;;
4084;SDS011;2057;50.858;6.572;2022-10-24T06:15:47;23.53;;;3.13;;
4084;SDS011;2057;50.858;6.572;2022-10-24T06:18:13;3.60;;;1.83;;
4084;SDS011;2057;50.858;6.572;2022-10-24T06:20:38;4.90;;;2.30;;
4084;SDS011;2057;50.858;6.572;2022-10-24T06:23:03;4.97;;;1.83;;
4084;SDS011;2057;50.858;6.572;2022-10-24T06:25:29;6.30;;;1.80;;
4084;SDS011;2057;50.858;6.572;2022-10-24T06:27:54;3.60;;;1.40;;
4084;SDS011;2057;50.858;6.572;2022-10-24T06:30:19;6.10;;;1.40;;
4084;SDS011;2057;50.858;6.572;2022-10-24T06:32:45;9.10;;;1.97;;
4084;SDS011;2057;50.858;6.572;2022-10-24T06:35:10;4.77;;;1.90;;
4084;SDS011;2057;50.858;6.572;2022-10-24T06:37:37;7.23;;;2.27;;
4084;SDS011;2057;50.858;6.572;2022-10-24T06:40:03;7.30;;;2.80;;
4084;SDS011;2057;50.858;6.572;2022-10-24T06:42:29;7.57;;;1.67;;
4084;SDS011;2057;50.858;6.572;2022-10-24T06:44:55;11.07;;;2.40;;
4084;SDS011;2057;50.858;6.572;2022-10-24T06:47:20;8.43;;;2.10;;
4084;SDS011;2057;50.858;6.572;2022-10-24T06:49:45;4.97;;;1.53;;
4084;SDS011;2057;50.858;6.572;2022-10-24T06:52:10;9.43;;;1.90;;
4084;SDS011;2057;50.858;6.572;2022-10-24T06:54:36;9.53;;;2.03;;
4084;SDS011;2057;50.858;6.572;2022-10-24T06:57:03;12.50;;;2.83;;
4084;SDS011;2057;50.858;6.572;2022-10-24T06:59:28;9.80;;;1.80;;
4084;SDS011;2057;50.858;6.572;2022-10-24T07:01:54;13.33;;;2.27;;
4084;SDS011;2057;50.858;6.572;2022-10-24T07:04:19;9.23;;;1.90;;
4084;SDS011;2057;50.858;6.572;2022-10-24T07:06:44;8.80;;;1.77;;
4084;SDS011;2057;50.858;6.572;2022-10-24T07:09:10;6.60;;;2.37;;
4084;SDS011;2057;50.858;6.572;2022-10-24T07:11:36;5.87;;;1.87;;
4084;SDS011;2057;50.858;6.572;2022-10-24T07:14:02;9.07;;;1.80;;
4084;SDS011;2057;50.858;6.572;2022-10-24T07:16:29;5.43;;;1.40;;
4084;SDS011;2057;50.858;6.572;2022-10-24T07:18:55;21.00;;;3.10;;
4084;SDS011;2057;50.858;6.572;2022-10-24T07:21:22;11.63;;;2.20;;
4084;SDS011;2057;50.858;6.572;2022-10-24T07:23:50;8.13;;;2.20;;
4084;SDS011;2057;50.858;6.572;2022-10-24T07:26:16;13.80;;;2.43;;
4084;SDS011;2057;50.858;6.572;2022-10-24T07:28:43;10.33;;;2.30;;
4084;SDS011;2057;50.858;6.572;2022-10-24T07:31:10;9.77;;;1.87;;
4084;SDS011;2057;50.858;6.572;2022-10-24T07:33:39;11.47;;;2.30;;
4084;SDS011;2057;50.858;6.572;2022-10-24T07:36:05;5.47;;;1.80;;
4084;SDS011;2057;50.858;6.572;2022-10-24T07:38:31;8.37;;;1.80;;
4084;SDS011;2057;50.858;6.572;2022-10-24T07:40:56;8.90;;;2.17;;
4084;SDS011;2057;50.858;6.572;2022-10-24T07:43:22;4.90;;;1.83;;
4084;SDS011;2057;50.858;6.572;2022-10-24T07:45:47;7.07;;;1.60;;
4084;SDS011;2057;50.858;6.572;2022-10-24T07:48:14;3.93;;;2.10;;
4084;SDS011;2057;50.858;6.572;2022-10-24T07:50:40;9.20;;;1.97;;
4084;SDS011;2057;50.858;6.572;2022-10-24T07:53:07;11.17;;;3.07;;
4084;SDS011;2057;50.858;6.572;2022-10-24T07:55:33;15.17;;;3.10;;
4084;SDS011;2057;50.858;6.572;2022-10-24T07:58:02;6.27;;;1.77;;
4084;SDS011;2057;50.858;6.572;2022-10-24T08:00:27;15.73;;;1.83;;
4084;SDS011;2057;50.858;6.572;2022-10-24T08:02:52;8.30;;;1.77;;
4084;SDS011;2057;50.858;6.572;2022-10-24T08:05:18;8.50;;;2.27;;
4084;SDS011;2057;50.858;6.572;2022-10-24T08:07:43;14.00;;;2.17;;
4084;SDS011;2057;50.858;6.572;2022-10-24T08:10:10;9.03;;;2.00;;
4084;SDS011;2057;50.858;6.572;2022-10-24T08:12:36;8.33;;;2.47;;
4084;SDS011;2057;50.858;6.572;2022-10-24T08:15:02;7.97;;;2.03;;
4084;SDS011;2057;50.858;6.572;2022-10-24T08:17:28;7.60;;;1.77;;
4084;SDS011;2057;50.858;6.572;2022-10-24T08:19:53;19.67;;;2.73;;
4084;SDS011;2057;50.858;6.572;2022-10-24T08:22:18;9.87;;;2.53;;
4084;SDS011;2057;50.858;6.572;2022-10-24T08:24:44;9.60;;;1.83;;
4084;SDS011;2057;50.858;6.572;2022-10-24T08:27:10;5.17;;;1.70;;
4084;SDS011;2057;50.858;6.572;2022-10-24T08:29:37;8.73;;;2.27;;
4084;SDS011;2057;50.858;6.572;2022-10-24T08:32:02;5.90;;;2.17;;
4084;SDS011;2057;50.858;6.572;2022-10-24T08:34:30;12.60;;;1.97;;
4084;SDS011;2057;50.858;6.572;2022-10-24T08:36:56;15.40;;;2.30;;
4084;SDS011;2057;50.858;6.572;2022-10-24T08:39:22;6.63;;;1.90;;
4084;SDS011;2057;50.858;6.572;2022-10-24T08:41:51;8.60;;;2.07;;
4084;SDS011;2057;50.858;6.572;2022-10-24T08:44:24;13.97;;;2.47;;
4084;SDS011;2057;50.858;6.572;2022-10-24T08:46:53;6.50;;;1.70;;
4084;SDS011;2057;50.858;6.572;2022-10-24T08:49:32;8.80;;;2.50;;
4084;SDS011;2057;50.858;6.572;2022-10-24T08:54:37;17.70;;;2.67;;
4084;SDS011;2057;50.858;6.572;2022-10-24T08:57:05;11.93;;;2.73;;
4084;SDS011;2057;50.858;6.572;2022-10-24T08:59:37;12.57;;;1.80;;
4084;SDS011;2057;50.858;6.572;2022-10-24T09:04:56;11.60;;;2.40;;
4084;SDS011;2057;50.858;6.572;2022-10-24T09:07:23;10.77;;;2.10;;
4084;SDS011;2057;50.858;6.572;2022-10-24T09:09:50;6.83;;;2.47;;
4084;SDS011;2057;50.858;6.572;2022-10-24T09:12:29;13.63;;;2.63;;
4084;SDS011;2057;50.858;6.572;2022-10-24T09:14:56;18.43;;;2.43;;
4084;SDS011;2057;50.858;6.572;2022-10-24T09:17:24;8.73;;;2.13;;
4084;SDS011;2057;50.858;6.572;2022-10-24T09:19:58;11.27;;;2.60;;
4084;SDS011;2057;50.858;6.572;2022-10-24T09:22:32;9.20;;;3.03;;
4084;SDS011;2057;50.858;6.572;2022-10-24T09:25:12;7.23;;;2.17;;
4084;SDS011;2057;50.858;6.572;2022-10-24T09:27:40;11.27;;;2.07;;
4084;SDS011;2057;50.858;6.572;2022-10-24T09:30:10;5.97;;;2.17;;
4084;SDS011;2057;50.858;6.572;2022-10-24T09:32:46;20.97;;;2.57;;
4084;SDS011;2057;50.858;6.572;2022-10-24T09:35:16;12.30;;;2.53;;
4084;SDS011;2057;50.858;6.572;2022-10-24T09:37:46;14.23;;;2.00;;
4084;SDS011;2057;50.858;6.572;2022-10-24T09:40:17;14.77;;;2.50;;
4084;SDS011;2057;50.858;6.572;2022-10-24T09:45:32;10.13;;;2.43;;
4084;SDS011;2057;50.858;6.572;2022-10-24T09:48:02;8.90;;;1.90;;
4084;SDS011;2057;50.858;6.572;2022-10-24T09:50:50;5.17;;;1.77;;
4084;SDS011;2057;50.858;6.572;2022-10-24T09:53:30;8.93;;;1.73;;
4084;SDS011;2057;50.858;6.572;2022-10-24T09:56:05;6.40;;;1.80;;
4084;SDS011;2057;50.858;6.572;2022-10-24T09:58:33;15.80;;;2.20;;
4084;SDS011;2057;50.858;6.572;2022-10-24T10:03:40;11.13;;;2.00;;
4084;SDS011;2057;50.858;6.572;2022-10-24T10:06:18;14.60;;;2.20;;
4084;SDS011;2057;50.858;6.572;2022-10-24T10:08:49;7.20;;;1.80;;
4084;SDS011;2057;50.858;6.572;2022-10-24T10:11:23;9.27;;;2.57;;
4084;SDS011;2057;50.858;6.572;2022-10-24T10:13:50;13.93;;;2.17;;
4084;SDS011;2057;50.858;6.572;2022-10-24T10:16:23;5.70;;;1.70;;
4084;SDS011;2057;50.858;6.572;2022-10-24T10:18:59;6.37;;;1.77;;
4084;SDS011;2057;50.858;6.572;2022-10-24T10:24:35;9.83;;;2.17;;
4084;SDS011;2057;50.858;6.572;2022-10-24T10:27:22;11.93;;;1.90;;
4084;SDS011;2057;50.858;6.572;2022-10-24T10:40:55;7.00;;;2.33;;
4084;SDS011;2057;50.858;6.572;2022-10-24T10:43:38;15.30;;;3.00;;
4084;SDS011;2057;50.858;6.572;2022-10-24T10:46:20;13.33;;;2.97;;
4084;SDS011;2057;50.858;6.572;2022-10-24T10:51:28;8.23;;;2.50;;
4084;SDS011;2057;50.858;6.572;2022-10-24T10:57:10;15.10;;;2.33;;
4084;SDS011;2057;50.858;6.572;2022-10-24T11:05:15;6.10;;;2.23;;
4084;SDS011;2057;50.858;6.572;2022-10-24T11:07:44;13.60;;;2.20;;
4084;SDS011;2057;50.858;6.572;2022-10-24T11:10:19;5.60;;;2.23;;
4084;SDS011;2057;50.858;6.572;2022-10-24T11:12:48;7.53;;;1.93;;
4084;SDS011;2057;50.858;6.572;2022-10-24T11:15:16;11.13;;;2.73;;
4084;SDS011;2057;50.858;6.572;2022-10-24T11:20:48;8.00;;;2.93;;
4084;SDS011;2057;50.858;6.572;2022-10-24T11:23:31;7.40;;;3.20;;
4084;SDS011;2057;50.858;6.572;2022-10-24T11:26:25;5.63;;;1.97;;
4084;SDS011;2057;50.858;6.572;2022-10-24T11:29:00;18.77;;;3.00;;
4084;SDS011;2057;50.858;6.572;2022-10-24T11:42:26;23.87;;;2.93;;
4084;SDS011;2057;50.858;6.572;2022-10-24T11:50:52;9.57;;;2.07;;
4084;SDS011;2057;50.858;6.572;2022-10-24T11:57:01;8.07;;;2.00;;
4084;SDS011;2057;50.858;6.572;2022-10-24T11:59:05;9.27;;;1.90;;
4084;SDS011;2057;50.858;6.572;2022-10-24T12:01:39;11.87;;;2.27;;
4084;SDS011;2057;50.858;6.572;2022-10-24T12:20:25;5.90;;;2.20;;
4084;SDS011;2057;50.858;6.572;2022-10-24T12:22:52;5.70;;;1.90;;
4084;SDS011;2057;50.858;6.572;2022-10-24T12:27:58;9.43;;;2.10;;
4084;SDS011;2057;50.858;6.572;2022-10-24T12:30:26;5.43;;;2.27;;
4084;SDS011;2057;50.858;6.572;2022-10-24T12:32:55;8.47;;;2.50;;
4084;SDS011;2057;50.858;6.572;2022-10-24T12:35:32;6.93;;;2.13;;
4084;SDS011;2057;50.858;6.572;2022-10-24T12:40:58;7.73;;;1.90;;
4084;SDS011;2057;50.858;6.572;2022-10-24T12:43:39;17.63;;;2.20;;
4084;SDS011;2057;50.858;6.572;2022-10-24T12:54:03;13.50;;;1.47;;
4084;SDS011;2057;50.858;6.572;2022-10-24T12:56:30;11.43;;;2.10;;
4084;SDS011;2057;50.858;6.572;2022-10-24T12:58:58;6.10;;;1.73;;
4084;SDS011;2057;50.858;6.572;2022-10-24T13:01:30;5.10;;;1.73;;
4084;SDS011;2057;50.858;6.572;2022-10-24T13:11:58;12.30;;;2.10;;
4084;SDS011;2057;50.858;6.572;2022-10-24T13:14:41;10.40;;;2.27;;
4084;SDS011;2057;50.858;6.572;2022-10-24T13:20:14;6.27;;;1.73;;
4084;SDS011;2057;50.858;6.572;2022-10-24T13:22:40;8.63;;;2.33;;
4084;SDS011;2057;50.858;6.572;2022-10-24T13:25:19;7.93;;;1.73;;
4084;SDS011;2057;50.858;6.572;2022-10-24T13:30:48;7.10;;;2.10;;
4084;SDS011;2057;50.858;6.572;2022-10-24T13:36:07;6.17;;;2.47;;
4084;SDS011;2057;50.858;6.572;2022-10-24T13:41:21;4.83;;;1.80;;
4084;SDS011;2057;50.858;6.572;2022-10-24T13:46:54;8.10;;;1.67;;
4084;SDS011;2057;50.858;6.572;2022-10-24T13:49:37;7.90;;;1.77;;
4084;SDS011;2057;50.858;6.572;2022-10-24T13:52:13;9.57;;;1.70;;
4084;SDS011;2057;50.858;6.572;2022-10-24T13:54:44;6.80;;;2.30;;
4084;SDS011;2057;50.858;6.572;2022-10-24T13:57:22;15.00;;;2.50;;
4084;SDS011;2057;50.858;6.572;2022-10-24T13:59:52;9.70;;;1.67;;
4084;SDS011;2057;50.858;6.572;2022-10-24T14:02:23;10.70;;;1.80;;
4084;SDS011;2057;50.858;6.572;2022-10-24T14:04:52;16.20;;;2.57;;
4084;SDS011;2057;50.858;6.572;2022-10-24T14:07:36;7.10;;;2.23;;
4084;SDS011;2057;50.858;6.572;2022-10-24T14:10:03;11.70;;;1.87;;
4084;SDS011;2057;50.858;6.572;2022-10-24T14:12:33;8.97;;;1.80;;
4084;SDS011;2057;50.858;6.572;2022-10-24T14:15:00;6.43;;;1.77;;
4084;SDS011;2057;50.858;6.572;2022-10-24T14:17:31;12.57;;;2.00;;
4084;SDS011;2057;50.858;6.572;2022-10-24T14:20:18;9.07;;;2.30;;
4084;SDS011;2057;50.858;6.572;2022-10-24T14:22:47;11.97;;;2.90;;
4084;SDS011;2057;50.858;6.572;2022-10-24T14:27:46;13.37;;;2.43;;
4084;SDS011;2057;50.858;6.572;2022-10-24T14:30:16;12.90;;;2.40;;
4084;SDS011;2057;50.858;6.572;2022-10-24T14:32:44;12.43;;;2.40;;
4084;SDS011;2057;50.858;6.572;2022-10-24T14:35:10;28.03;;;3.03;;
4084;SDS011;2057;50.858;6.572;2022-10-24T14:37:38;6.00;;;1.63;;
4084;SDS011;2057;50.858;6.572;2022-10-24T14:40:04;6.30;;;2.33;;
4084;SDS011;2057;50.858;6.572;2022-10-24T14:42:38;9.90;;;2.37;;
4084;SDS011;2057;50.858;6.572;2022-10-24T14:45:03;9.90;;;2.80;;
4084;SDS011;2057;50.858;6.572;2022-10-24T14:47:30;7.07;;;1.97;;
4084;SDS011;2057;50.858;6.572;2022-10-24T14:49:58;5.67;;;1.83;;
4084;SDS011;2057;50.858;6.572;2022-10-24T14:55:05;10.23;;;2.57;;
4084;SDS011;2057;50.858;6.572;2022-10-24T14:57:44;12.70;;;2.73;;
4084;SDS011;2057;50.858;6.572;2022-10-24T15:00:23;10.50;;;2.20;;
4084;SDS011;2057;50.858;6.572;2022-10-24T15:02:50;6.13;;;2.00;;
4084;SDS011;2057;50.858;6.572;2022-10-24T15:07:59;3.57;;;1.37;;
4084;SDS011;2057;50.858;6.572;2022-10-24T15:13:00;10.50;;;2.83;;
4084;SDS011;2057;50.858;6.572;2022-10-24T15:15:31;7.03;;;1.97;;
4084;SDS011;2057;50.858;6.572;2022-10-24T15:20:49;16.63;;;1.90;;
4084;SDS011;2057;50.858;6.572;2022-10-24T15:23:19;8.70;;;2.23;;
4084;SDS011;2057;50.858;6.572;2022-10-24T15:28:35;9.33;;;2.67;;
4084;SDS011;2057;50.858;6.572;2022-10-24T15:31:10;6.43;;;1.97;;
4084;SDS011;2057;50.858;6.572;2022-10-24T15:33:37;20.07;;;2.87;;
4084;SDS011;2057;50.858;6.572;2022-10-24T15:36:03;11.60;;;2.40;;
4084;SDS011;2057;50.858;6.572;2022-10-24T15:38:29;12.13;;;2.37;;
4084;SDS011;2057;50.858;6.572;2022-10-24T15:40:54;11.70;;;2.20;;
4084;SDS011;2057;50.858;6.572;2022-10-24T15:43:22;9.27;;;1.87;;
4084;SDS011;2057;50.858;6.572;2022-10-24T15:45:47;14.73;;;2.40;;
4084;SDS011;2057;50.858;6.572;2022-10-24T15:48:16;7.77;;;2.43;;
4084;SDS011;2057;50.858;6.572;2022-10-24T15:50:42;10.73;;;1.90;;
4084;SDS011;2057;50.858;6.572;2022-10-24T15:53:13;14.87;;;3.10;;
4084;SDS011;2057;50.858;6.572;2022-10-24T15:55:41;11.20;;;2.70;;
4084;SDS011;2057;50.858;6.572;2022-10-24T15:58:10;11.00;;;2.53;;
4084;SDS011;2057;50.858;6.572;2022-10-24T16:00:36;16.13;;;2.63;;
4084;SDS011;2057;50.858;6.572;2022-10-24T16:03:03;7.70;;;2.03;;
4084;SDS011;2057;50.858;6.572;2022-10-24T16:05:36;18.93;;;3.43;;
4084;SDS011;2057;50.858;6.572;2022-10-24T16:08:04;9.80;;;2.20;;
4084;SDS011;2057;50.858;6.572;2022-10-24T16:10:30;9.40;;;1.93;;
4084;SDS011;2057;50.858;6.572;2022-10-24T16:12:55;7.73;;;1.80;;
4084;SDS011;2057;50.858;6.572;2022-10-24T16:17:51;16.33;;;3.20;;
4084;SDS011;2057;50.858;6.572;2022-10-24T16:20:17;7.50;;;2.33;;
4084;SDS011;2057;50.858;6.572;2022-10-24T16:22:43;10.53;;;2.60;;
4084;SDS011;2057;50.858;6.572;2022-10-24T16:25:30;17.00;;;2.20;;
4084;SDS011;2057;50.858;6.572;2022-10-24T16:27:56;12.57;;;2.27;;
4084;SDS011;2057;50.858;6.572;2022-10-24T16:30:23;11.40;;;2.93;;
4084;SDS011;2057;50.858;6.572;2022-10-24T16:32:50;10.90;;;2.63;;
4084;SDS011;2057;50.858;6.572;2022-10-24T16:35:20;9.77;;;2.33;;
4084;SDS011;2057;50.858;6.572;2022-10-24T16:37:49;17.13;;;3.20;;
4084;SDS011;2057;50.858;6.572;2022-10-24T16:40:15;13.97;;;3.10;;
4084;SDS011;2057;50.858;6.572;2022-10-24T16:42:40;11.60;;;2.60;;
4084;SDS011;2057;50.858;6.572;2022-10-24T16:45:06;16.07;;;3.57;;
4084;SDS011;2057;50.858;6.572;2022-10-24T16:47:32;21.33;;;2.80;;
4084;SDS011;2057;50.858;6.572;2022-10-24T16:49:58;27.03;;;3.77;;
4084;SDS011;2057;50.858;6.572;2022-10-24T16:52:24;24.93;;;3.27;;
4084;SDS011;2057;50.858;6.572;2022-10-24T16:54:50;7.80;;;2.50;;
4084;SDS011;2057;50.858;6.572;2022-10-24T16:57:17;12.67;;;2.60;;
4084;SDS011;2057;50.858;6.572;2022-10-24T16:59:44;11.97;;;3.00;;
4084;SDS011;2057;50.858;6.572;2022-10-24T17:02:10;7.37;;;2.03;;
4084;SDS011;2057;50.858;6.572;2022-10-24T17:04:38;12.67;;;2.80;;
4084;SDS011;2057;50.858;6.572;2022-10-24T17:07:03;13.97;;;2.70;;
4084;SDS011;2057;50.858;6.572;2022-10-24T17:09:29;7.17;;;2.60;;
4084;SDS011;2057;50.858;6.572;2022-10-24T17:11:54;12.20;;;2.73;;
4084;SDS011;2057;50.858;6.572;2022-10-24T17:14:23;15.10;;;3.00;;
4084;SDS011;2057;50.858;6.572;2022-10-24T17:16:49;16.63;;;3.80;;
4084;SDS011;2057;50.858;6.572;2022-10-24T17:19:15;12.17;;;2.93;;
4084;SDS011;2057;50.858;6.572;2022-10-24T17:21:40;22.10;;;3.40;;
4084;SDS011;2057;50.858;6.572;2022-10-24T17:24:08;18.80;;;3.27;;
4084;SDS011;2057;50.858;6.572;2022-10-24T17:26:37;13.03;;;3.20;;
4084;SDS011;2057;50.858;6.572;2022-10-24T17:29:02;16.43;;;3.03;;
4084;SDS011;2057;50.858;6.572;2022-10-24T17:31:28;23.10;;;4.10;;
4084;SDS011;2057;50.858;6.572;2022-10-24T17:33:54;19.27;;;3.17;;
4084;SDS011;2057;50.858;6.572;2022-10-24T17:36:24;16.03;;;3.40;;
4084;SDS011;2057;50.858;6.572;2022-10-24T17:41:26;12.10;;;3.13;;
4084;SDS011;2057;50.858;6.572;2022-10-24T17:43:55;11.10;;;3.13;;
4084;SDS011;2057;50.858;6.572;2022-10-24T17:46:21;12.43;;;2.87;;
4084;SDS011;2057;50.858;6.572;2022-10-24T17:48:46;16.13;;;3.83;;
4084;SDS011;2057;50.858;6.572;2022-10-24T17:51:12;11.43;;;2.83;;
4084;SDS011;2057;50.858;6.572;2022-10-24T17:53:42;11.63;;;2.87;;
4084;SDS011;2057;50.858;6.572;2022-10-24T17:56:08;15.30;;;3.50;;
4084;SDS011;2057;50.858;6.572;2022-10-24T17:58:33;9.70;;;3.80;;